Time;durP1;ratioP1;P1;durP2;ratioP2;P2;SDS_P1;SDS_P2;PMS_P1;PMS_P2;Temp;Humidity;BMP_temperature;BMP_pressure;BME280_temperature;BME280_humidity;BME280_pressure;Samples;Min_cycle;Max_cycle;Signal;HPM_P1;HPM_P2
2023/02/09 00:01:02;;;;;;;;;;;;;;;20.18;43.31;103120.84;5055450;28;2827;-56
2023/02/09 00:03:28;;;;;;;;;;;;;;;20.17;43.28;103117.22;5051348;28;2871;-57
2023/02/09 00:05:55;;;;;;;;;;;;;;;20.15;43.38;103113.41;5040567;28;3197;-57
2023/02/09 00:08:21;;;;;;;;;;;;;;;20.15;43.24;103110.53;5049270;28;3122;-57
2023/02/09 00:10:47;;;;;;;;;;;;;;;20.15;43.32;103099.03;5060943;28;2868;-57
2023/02/09 00:13:23;;;;;;;;;;;;;;;20.11;43.17;103090.81;5053417;28;2816;-56
2023/02/09 00:15:53;;;;;;;;;;;;;;;20.15;43.21;103099.78;5053752;28;3008;-57
2023/02/09 00:18:19;;;;;;;;;;;;;;;20.15;43.18;103096.16;5056145;28;2915;-57
2023/02/09 00:20:53;;;;;;;;;;;;;;;20.15;43.37;103099.78;5051555;28;2848;-57
2023/02/09 00:23:20;;;;;;;;;;;;;;;20.16;43.04;103089.81;5052186;28;2822;-57
2023/02/09 00:25:46;;;;;;;;;;;;;;;20.16;43.26;103094.78;5047207;28;2887;-56
2023/02/09 00:28:12;;;;;;;;;;;;;;;20.17;43.19;103099.19;5054444;28;2255;-57
2023/02/09 00:30:39;;;;;;;;;;;;;;;20.16;43.20;103095.56;5045530;28;2863;-56
2023/02/09 00:33:05;;;;;;;;;;;;;;;20.16;43.12;103083.28;5050687;28;2911;-56
2023/02/09 00:35:32;;;;;;;;;;;;;;;20.15;43.10;103076.78;5047262;28;2844;-56
2023/02/09 00:37:58;;;;;;;;;;;;;;;20.14;43.08;103081.03;5053479;28;2963;-56
2023/02/09 00:40:24;;;;;;;;;;;;;;;20.12;43.25;103071.47;5054397;28;2655;-56
2023/02/09 00:42:51;;;;;;;;;;;;;;;20.13;43.03;103078.72;5051612;28;2876;-57
2023/02/09 00:45:17;;;;;;;;;;;;;;;20.13;43.02;103075.84;5045398;28;3268;-57
2023/02/09 00:47:43;;;;;;;;;;;;;;;20.12;43.13;103082.97;5048256;28;2898;-56
2023/02/09 00:50:10;;;;;;;;;;;;;;;20.13;42.97;103078.72;5049383;28;2974;-56
2023/02/09 00:52:36;;;;;;;;;;;;;;;20.13;42.88;103081.59;5049280;28;2967;-56
2023/02/09 00:55:03;;;;;;;;;;;;;;;20.13;42.95;103081.59;5051233;28;3277;-55
2023/02/09 00:57:29;;;;;;;;;;;;;;;20.13;42.91;103072.97;5056204;28;1732;-56
2023/02/09 00:59:55;;;;;;;;;;;;;;;20.14;43.14;103068.75;5048022;28;2786;-55
2023/02/09 01:02:22;;;;;;;;;;;;;;;20.14;42.88;103069.50;5051022;28;2785;-57
2023/02/09 01:04:48;;;;;;;;;;;;;;;20.13;43.06;103065.09;5050370;28;2852;-57
2023/02/09 01:07:14;;;;;;;;;;;;;;;20.13;43.05;103064.34;5045561;28;2939;-56
2023/02/09 01:09:41;;;;;;;;;;;;;;;20.11;43.01;103067.81;5050581;28;2840;-56
2023/02/09 01:12:07;;;;;;;;;;;;;;;20.10;43.07;103063.41;5048367;28;2928;-56
2023/02/09 01:14:36;;;;;;;;;;;;;;;20.09;43.03;103059.78;5051311;28;2537;-56
2023/02/09 01:17:02;;;;;;;;;;;;;;;20.08;42.86;103058.25;5047996;28;2967;-57
2023/02/09 01:19:29;;;;;;;;;;;;;;;20.08;43.05;103055.38;5066555;28;2842;-56
2023/02/09 01:21:55;;;;;;;;;;;;;;;20.08;42.86;103061.13;5048335;28;2848;-57
2023/02/09 01:24:21;;;;;;;;;;;;;;;20.08;42.93;103058.25;5051222;28;2918;-56
2023/02/09 01:26:48;;;;;;;;;;;;;;;20.09;42.96;103051.16;5051822;28;2729;-56
2023/02/09 01:29:14;;;;;;;;;;;;;;;20.11;42.98;103049.78;5050979;28;2867;-56
2023/02/09 01:31:41;;;;;;;;;;;;;;;20.11;42.83;103055.53;5050468;28;2816;-56
2023/02/09 01:34:09;;;;;;;;;;;;;;;20.11;42.93;103049.78;5052606;28;2812;-57
2023/02/09 01:36:35;;;;;;;;;;;;;;;20.11;42.94;103049.78;5040487;28;2831;-56
2023/02/09 01:39:01;;;;;;;;;;;;;;;20.10;43.04;103040.41;5053034;28;2963;-56
2023/02/09 01:41:28;;;;;;;;;;;;;;;20.09;43.01;103033.91;5048782;28;2947;-56
2023/02/09 01:43:56;;;;;;;;;;;;;;;20.07;42.87;103025.09;5053081;28;2702;-56
2023/02/09 01:46:22;;;;;;;;;;;;;;;20.07;42.84;103018.59;5051774;28;2561;-57
2023/02/09 01:48:50;;;;;;;;;;;;;;;20.06;42.90;103017.81;5052978;28;2869;-57
2023/02/09 01:51:16;;;;;;;;;;;;;;;20.04;42.83;103011.91;5044673;28;2725;-56
2023/02/09 01:53:43;;;;;;;;;;;;;;;20.05;42.83;103004.03;5047592;28;2875;-56
2023/02/09 01:56:10;;;;;;;;;;;;;;;20.05;42.86;102999.03;5044741;28;2743;-57
2023/02/09 01:58:36;;;;;;;;;;;;;;;20.05;42.84;103001.91;5035695;28;2445;-56
2023/02/09 02:01:03;;;;;;;;;;;;;;;20.06;42.85;102996.91;5057925;28;1737;-56
2023/02/09 02:03:29;;;;;;;;;;;;;;;20.07;42.86;102996.34;5054482;28;2957;-56
2023/02/09 02:05:57;;;;;;;;;;;;;;;20.06;42.86;102991.91;5048791;28;2901;-56
2023/02/09 02:08:34;;;;;;;;;;;;;;;20.07;42.80;102978.31;5066481;28;2994;-56
2023/02/09 02:11:00;;;;;;;;;;;;;;;20.06;42.85;102983.28;5058757;28;2488;-57
2023/02/09 02:13:26;;;;;;;;;;;;;;;20.05;42.70;102978.16;5052931;28;3017;-56
2023/02/09 02:15:59;;;;;;;;;;;;;;;20.05;42.76;102981.03;5050372;28;3035;-55
2023/02/09 02:18:25;;;;;;;;;;;;;;;20.03;42.63;102970.13;5049522;28;2725;-57
2023/02/09 02:20:54;;;;;;;;;;;;;;;20.03;42.75;102970.13;5049214;28;2907;-56
2023/02/09 02:32:17;;;;;;;;;;;;;;;20.02;42.68;102968.59;5045595;28;2936;-57
2023/02/09 02:35:04;;;;;;;;;;;;;;;20.03;42.83;102958.59;5038426;28;2863;-57
2023/02/09 02:37:36;;;;;;;;;;;;;;;20.03;42.73;102954.97;5049215;28;2706;-56
2023/02/09 02:40:12;;;;;;;;;;;;;;;20.05;42.83;102953.03;5053178;28;2647;-54
2023/02/09 02:42:48;;;;;;;;;;;;;;;20.04;42.75;102950.72;5053712;28;3354;-56
2023/02/09 02:45:17;;;;;;;;;;;;;;;20.04;42.82;102945.75;5055987;28;2966;-56
2023/02/09 02:47:46;;;;;;;;;;;;;;;20.03;42.65;102934.84;5057478;28;2752;-56
2023/02/09 02:50:12;;;;;;;;;;;;;;;20.02;42.73;102945.59;5057444;28;2976;-56
2023/02/09 02:52:39;;;;;;;;;;;;;;;20.01;42.72;102940.44;5051686;28;2139;-56
2023/02/09 02:55:07;;;;;;;;;;;;;;;20.00;42.78;102939.69;5048375;28;2627;-56
2023/02/09 02:57:33;;;;;;;;;;;;;;;20.00;42.67;102936.03;5058301;28;2852;-57
2023/02/09 03:00:00;;;;;;;;;;;;;;;19.98;42.65;102928.00;5055051;28;2815;-57
2023/02/09 03:02:29;;;;;;;;;;;;;;;20.00;42.60;102927.41;5058455;28;2749;-55
2023/02/09 03:04:56;;;;;;;;;;;;;;;19.99;42.66;102926.63;5049349;28;2849;-57
2023/02/09 03:07:22;;;;;;;;;;;;;;;20.01;42.74;102921.06;5049867;28;2860;-56
2023/02/09 03:09:49;;;;;;;;;;;;;;;20.01;42.57;102923.94;5053792;28;2695;-57
2023/02/09 03:12:17;;;;;;;;;;;;;;;20.02;42.67;102925.47;5054622;28;2753;-56
2023/02/09 03:15:00;;;;;;;;;;;;;;;20.02;42.79;102927.56;5056423;28;2754;-57
2023/02/09 03:17:39;;;;;;;;;;;;;;;20.02;42.73;102925.47;5055403;28;1744;-57
2023/02/09 03:20:09;;;;;;;;;;;;;;;20.01;42.63;102920.28;5048143;28;2900;-57
2023/02/09 03:22:37;;;;;;;;;;;;;;;20.01;42.57;102918.16;5055029;28;2777;-55
2023/02/09 03:25:08;;;;;;;;;;;;;;;20.00;42.60;102919.53;5050586;28;2853;-56
2023/02/09 03:27:35;;;;;;;;;;;;;;;20.00;42.59;102916.66;5051953;28;2974;-57
2023/02/09 03:30:03;;;;;;;;;;;;;;;19.99;42.57;102918.00;5054585;28;2915;-57
2023/02/09 03:32:29;;;;;;;;;;;;;;;19.99;42.76;102920.88;5053834;28;3177;-57
2023/02/09 03:34:56;;;;;;;;;;;;;;;19.99;42.58;102908.63;5054451;28;2983;-55
2023/02/09 03:37:22;;;;;;;;;;;;;;;19.99;42.50;102903.63;5056920;28;2714;-57
2023/02/09 03:39:48;;;;;;;;;;;;;;;19.97;42.59;102909.22;5047045;28;2777;-57
2023/02/09 03:42:15;;;;;;;;;;;;;;;19.97;42.62;102899.84;5048821;28;2866;-56
2023/02/09 03:44:41;;;;;;;;;;;;;;;19.98;42.58;102905.00;5043858;28;2995;-57
2023/02/09 03:47:08;;;;;;;;;;;;;;;19.96;42.67;102899.09;5050280;28;2619;-57
2023/02/09 03:49:35;;;;;;;;;;;;;;;19.97;42.47;102897.72;5053178;28;3129;-56
2023/02/09 03:52:01;;;;;;;;;;;;;;;19.99;42.58;102892.13;5057173;28;2797;-57
2023/02/09 03:54:28;;;;;;;;;;;;;;;20.00;42.60;102902.28;5047772;28;2833;-56
2023/02/09 03:56:55;;;;;;;;;;;;;;;20.01;42.67;102895.16;5049432;28;2466;-57
2023/02/09 03:59:21;;;;;;;;;;;;;;;20.01;42.60;102895.16;5047888;28;2561;-57
2023/02/09 04:01:48;;;;;;;;;;;;;;;20.03;42.68;102891.69;5048434;28;2907;-57
2023/02/09 04:04:14;;;;;;;;;;;;;;;20.04;42.68;102882.50;5048609;28;2979;-55
2023/02/09 04:06:40;;;;;;;;;;;;;;;20.02;42.61;102876.56;5047373;28;2814;-57
2023/02/09 04:09:08;;;;;;;;;;;;;;;20.05;42.65;102883.25;5049829;28;2766;-56
2023/02/09 04:11:34;;;;;;;;;;;;;;;20.04;42.62;102876.72;5055269;28;2896;-57
2023/02/09 04:14:00;;;;;;;;;;;;;;;20.05;42.66;102877.50;5052357;28;2881;-56
2023/02/09 04:16:27;;;;;;;;;;;;;;;20.05;42.34;102877.50;5050060;28;2836;-56
2023/02/09 04:18:53;;;;;;;;;;;;;;;20.04;42.64;102884.59;5051675;28;2919;-56
2023/02/09 04:21:19;;;;;;;;;;;;;;;20.04;42.55;102887.47;5051925;28;2955;-56
2023/02/09 04:23:48;;;;;;;;;;;;;;;20.02;42.40;102888.06;5051080;28;2711;-56
2023/02/09 04:26:14;;;;;;;;;;;;;;;20.00;42.53;102881.41;5052087;28;2359;-56
2023/02/09 04:28:40;;;;;;;;;;;;;;;20.01;42.50;102888.66;5051121;28;2670;-56
2023/02/09 04:31:07;;;;;;;;;;;;;;;19.99;42.44;102880.63;5050177;28;2872;-54
2023/02/09 04:33:33;;;;;;;;;;;;;;;19.99;42.43;102880.63;5044863;28;2790;-56
2023/02/09 04:36:00;;;;;;;;;;;;;;;19.98;42.54;102879.13;5052828;28;2932;-57
2023/02/09 04:38:26;;;;;;;;;;;;;;;19.99;42.46;102869.13;5049159;28;2395;-56
2023/02/09 04:40:53;;;;;;;;;;;;;;;19.99;42.53;102877.75;5052054;28;2754;-57
2023/02/09 04:43:19;;;;;;;;;;;;;;;20.00;42.51;102882.16;5049771;28;2876;-55
2023/02/09 04:45:45;;;;;;;;;;;;;;;20.00;42.40;102879.28;5048629;28;2754;-55
2023/02/09 04:48:12;;;;;;;;;;;;;;;19.99;42.51;102869.13;5048140;28;2642;-56
2023/02/09 04:50:39;;;;;;;;;;;;;;;20.00;42.62;102864.91;5048009;28;2698;-57
2023/02/09 04:53:05;;;;;;;;;;;;;;;19.99;42.53;102863.38;5050188;28;2883;-56
2023/02/09 04:55:31;;;;;;;;;;;;;;;20.01;42.48;102875.03;5053480;28;2976;-55
2023/02/09 05:00:43;;;;;;;;;;;;;;;20.04;42.54;102859.47;5052301;28;3085;-57
2023/02/09 05:03:10;;;;;;;;;;;;;;;20.02;42.46;102856.44;5048917;28;2810;-57
2023/02/09 05:05:40;;;;;;;;;;;;;;;20.03;42.41;102857.19;5052399;28;2703;-57
2023/02/09 05:08:06;;;;;;;;;;;;;;;20.03;42.41;102857.19;5045623;28;3057;-57
2023/02/09 05:10:32;;;;;;;;;;;;;;;20.00;42.41;102844.78;5056116;28;2967;-56
2023/02/09 05:12:59;;;;;;;;;;;;;;;20.00;42.34;102850.53;5052440;28;2635;-56
2023/02/09 05:15:25;;;;;;;;;;;;;;;19.99;42.43;102854.75;5043176;28;2888;-56
2023/02/09 05:17:51;;;;;;;;;;;;;;;19.99;42.45;102863.38;5052109;28;2092;-57
2023/02/09 05:20:18;;;;;;;;;;;;;;;19.99;42.44;102857.63;5049058;28;2982;-57
2023/02/09 05:22:44;;;;;;;;;;;;;;;19.99;42.35;102857.63;5052873;28;4174;-57
2023/02/09 05:25:10;;;;;;;;;;;;;;;19.99;42.45;102869.13;5051787;28;2901;-56
2023/02/09 05:27:37;;;;;;;;;;;;;;;19.99;42.40;102857.63;5053560;28;2731;-57
2023/02/09 05:30:03;;;;;;;;;;;;;;;19.99;42.39;102849.00;5047233;28;2946;-56
2023/02/09 05:32:29;;;;;;;;;;;;;;;20.02;42.45;102855.66;5039276;28;3081;-56
2023/02/09 05:34:56;;;;;;;;;;;;;;;20.01;42.33;102848.41;5041262;28;2868;-56
2023/02/09 05:37:22;;;;;;;;;;;;;;;20.01;42.31;102857.78;5054404;28;3316;-56
2023/02/09 05:39:49;;;;;;;;;;;;;;;20.01;42.33;102860.66;5054005;28;1862;-57
2023/02/09 05:42:16;;;;;;;;;;;;;;;20.02;42.36;102850.69;5048408;28;1914;-57
2023/02/09 05:44:46;;;;;;;;;;;;;;;20.02;42.45;102847.81;5050829;28;2758;-57
2023/02/09 05:47:13;;;;;;;;;;;;;;;20.02;42.35;102850.69;5054046;28;2957;-56
2023/02/09 05:49:40;;;;;;;;;;;;;;;20.02;42.30;102850.69;5053331;28;2724;-53
2023/02/09 05:52:06;;;;;;;;;;;;;;;20.02;42.32;102849.91;5048711;28;3170;-55
2023/02/09 05:54:32;;;;;;;;;;;;;;;20.01;42.30;102849.16;5053383;28;3172;-56
2023/02/09 05:56:59;;;;;;;;;;;;;;;20.01;42.27;102849.16;5054062;28;2858;-57
2023/02/09 05:59:25;;;;;;;;;;;;;;;20.00;42.22;102847.66;5052191;28;3857;-56
2023/02/09 06:01:51;;;;;;;;;;;;;;;19.99;42.34;102857.63;5048688;28;3272;-56
2023/02/09 06:04:18;;;;;;;;;;;;;;;19.98;42.35;102853.22;5050876;28;2825;-57
2023/02/09 06:06:44;;;;;;;;;;;;;;;19.99;42.30;102851.88;5054357;28;2806;-56
2023/02/09 06:09:11;;;;;;;;;;;;;;;20.03;42.35;102846.44;5052559;28;2695;-64
2023/02/09 06:11:38;;;;;;;;;;;;;;;20.12;42.49;102858.59;5051047;28;3145;-61
2023/02/09 06:14:04;;;;;;;;;;;;;;;20.09;43.08;102852.69;5057871;28;2836;-60
2023/02/09 06:16:30;;;;;;;;;;;;;;;20.05;42.77;102855.22;5048529;28;2880;-62
2023/02/09 06:18:57;;;;;;;;;;;;;;;20.05;42.75;102852.34;5047851;28;2847;-59
2023/02/09 06:21:23;;;;;;;;;;;;;;;20.17;43.18;102857.56;5049433;28;3001;-61
2023/02/09 06:23:49;;;;;;;;;;;;;;;20.17;44.09;102863.31;5051854;28;2934;-60
2023/02/09 06:26:16;;;;;;;;;;;;;;;20.20;44.22;102859.22;5047474;28;3256;-61
2023/02/09 06:28:42;;;;;;;;;;;;;;;20.17;44.41;102866.19;5048532;28;2993;-61
2023/02/09 06:31:08;;;;;;;;;;;;;;;20.15;44.94;102861.03;5052456;28;2841;-61
2023/02/09 06:33:35;;;;;;;;;;;;;;;20.08;44.93;102865.53;5053197;28;2739;-61
2023/02/09 06:36:01;;;;;;;;;;;;;;;20.06;44.39;102862.50;5050298;28;2801;-62
2023/02/09 06:38:34;;;;;;;;;;;;;;;20.04;43.96;102865.22;5050590;28;2790;-62
2023/02/09 06:41:00;;;;;;;;;;;;;;;20.04;44.02;102868.09;5053029;28;2960;-62
2023/02/09 06:43:26;;;;;;;;;;;;;;;20.03;44.02;102869.44;5058682;28;2866;-62
2023/02/09 06:45:53;;;;;;;;;;;;;;;20.04;43.93;102865.22;5053535;28;2861;-62
2023/02/09 06:48:19;;;;;;;;;;;;;;;20.02;44.12;102865.06;5050072;28;2367;-61
2023/02/09 06:50:46;;;;;;;;;;;;;;;20.06;44.42;102862.50;5058531;28;2095;-62
2023/02/09 06:53:12;;;;;;;;;;;;;;;20.05;44.41;102866.75;5054554;28;2782;-60
2023/02/09 06:55:39;;;;;;;;;;;;;;;20.02;44.26;102867.16;5046601;28;2516;-61
2023/02/09 06:58:05;;;;;;;;;;;;;;;20.02;44.19;102862.19;5046116;28;3757;-64
2023/02/09 07:00:31;;;;;;;;;;;;;;;19.95;44.63;102859.41;5053520;28;2841;-69
2023/02/09 07:02:58;;;;;;;;;;;;;;;19.99;44.35;102862.63;5051373;28;2280;-68
2023/02/09 07:05:24;;;;;;;;;;;;;;;20.19;45.32;102869.97;5048832;28;3210;-68
2023/02/09 07:07:51;;;;;;;;;;;;;;;20.38;45.10;102874.28;5056000;28;2890;-70
2023/02/09 07:10:17;;;;;;;;;;;;;;;20.44;44.67;102872.66;5052333;28;3082;-68
2023/02/09 07:12:44;;;;;;;;;;;;;;;20.46;44.34;102875.69;5057887;28;3065;-70
2023/02/09 07:15:10;;;;;;;;;;;;;;;20.49;44.19;102860.09;5055910;28;2745;-68
2023/02/09 07:17:36;;;;;;;;;;;;;;;20.57;44.02;102873.63;5050367;28;2847;-69
2023/02/09 07:20:03;;;;;;;;;;;;;;;20.56;43.65;102863.44;5046737;28;3878;-67
2023/02/09 07:22:29;;;;;;;;;;;;;;;20.59;43.38;102857.28;5051225;28;3003;-68
2023/02/09 07:24:56;;;;;;;;;;;;;;;20.60;43.31;102858.03;5057052;28;3241;-67
2023/02/09 07:27:22;;;;;;;;;;;;;;;20.64;43.21;102864.13;5051441;28;2875;-69
2023/02/09 07:29:48;;;;;;;;;;;;;;;20.60;43.06;102858.78;5050647;28;2958;-71
2023/02/09 07:32:15;;;;;;;;;;;;;;;20.60;43.04;102855.16;5049514;28;2943;-70
2023/02/09 07:34:41;;;;;;;;;;;;;;;20.64;43.06;102858.34;5053130;28;3337;-69
2023/02/09 07:37:07;;;;;;;;;;;;;;;20.55;42.88;102861.91;5050688;28;2972;-68
2023/02/09 07:39:35;;;;;;;;;;;;;;;20.40;43.34;102855.06;5052792;28;4613;-67
2023/02/09 07:42:02;;;;;;;;;;;;;;;20.49;42.97;102850.69;5053605;28;2524;-66
2023/02/09 07:44:49;;;;;;;;;;;;;;;20.55;42.65;102854.06;5052998;28;2828;-67
2023/02/09 07:47:15;;;;;;;;;;;;;;;20.59;42.35;102860.16;5047696;28;2992;-67
2023/02/09 07:49:41;;;;;;;;;;;;;;;20.59;42.24;102859.38;5051220;28;3266;-66
2023/02/09 07:52:08;;;;;;;;;;;;;;;20.60;42.47;102866.69;5042930;28;4691;-67
2023/02/09 07:54:34;;;;;;;;;;;;;;;20.41;41.74;102856.59;5047340;28;3046;-67
2023/02/09 07:57:00;;;;;;;;;;;;;;;20.36;41.71;102860.50;5055255;28;2908;-67
2023/02/09 07:59:27;;;;;;;;;;;;;;;20.41;42.74;102850.84;5049066;28;4722;-66
2023/02/09 08:01:53;;;;;;;;;;;;;;;20.54;42.39;102858.28;5056123;28;2781;-67
2023/02/09 08:04:20;;;;;;;;;;;;;;;20.67;41.89;102854.25;5049896;28;2915;-69
2023/02/09 08:06:46;;;;;;;;;;;;;;;20.71;41.59;102851.69;5051900;28;2867;-70
2023/02/09 08:09:13;;;;;;;;;;;;;;;20.83;41.37;102846.88;5054310;28;2920;-70
2023/02/09 08:11:45;;;;;;;;;;;;;;;20.87;41.35;102843.53;5047743;28;2997;-70
2023/02/09 08:14:16;;;;;;;;;;;;;;;20.65;40.61;102849.09;5052851;28;2836;-76
2023/02/09 08:16:42;;;;;;;;;;;;;;;20.78;40.76;102841.41;5053570;28;2951;-76
2023/02/09 08:19:10;;;;;;;;;;;;;;;20.84;41.01;102839.72;5061769;28;2180;-76
2023/02/09 08:21:37;;;;;;;;;;;;;;;20.87;41.19;102827.00;5052342;28;2924;-77
2023/02/09 08:24:04;;;;;;;;;;;;;;;20.88;41.12;102836.41;5057957;28;2813;-76
2023/02/09 08:26:30;;;;;;;;;;;;;;;20.90;41.09;102843.06;5054849;28;2876;-73
2023/02/09 08:28:57;;;;;;;;;;;;;;;20.91;41.02;102841.72;5051712;28;3284;-73
2023/02/09 08:31:23;;;;;;;;;;;;;;;20.95;40.76;102829.00;5051620;28;3129;-72
2023/02/09 08:33:50;;;;;;;;;;;;;;;20.97;40.83;102829.16;5049091;28;3279;-75
2023/02/09 08:36:16;;;;;;;;;;;;;;;21.04;40.84;102822.47;5056373;28;2979;-76
2023/02/09 08:38:43;;;;;;;;;;;;;;;20.92;40.36;102810.81;5046214;28;3526;-68
2023/02/09 08:41:10;;;;;;;;;;;;;;;20.67;35.38;102822.59;5047148;28;3353;-70
2023/02/09 08:43:36;;;;;;;;;;;;;;;20.55;35.33;102830.25;5050221;28;2993;-69
2023/02/09 08:46:04;;;;;;;;;;;;;;;20.49;35.74;102845.69;5054992;28;1646;-70
2023/02/09 08:48:31;;;;;;;;;;;;;;;20.48;35.73;102846.31;5053348;28;2895;-69
2023/02/09 08:50:59;;;;;;;;;;;;;;;20.48;35.79;102835.56;5050840;28;2489;-69
2023/02/09 08:53:25;;;;;;;;;;;;;;;20.46;35.83;102840.41;5052408;28;2867;-70
2023/02/09 08:55:52;;;;;;;;;;;;;;;20.41;36.28;102836.44;5054404;28;2054;-69
2023/02/09 08:58:18;;;;;;;;;;;;;;;20.40;36.39;102837.03;5043657;28;4420;-72
2023/02/09 09:00:44;;;;;;;;;;;;;;;20.38;36.69;102840.50;5049608;28;3149;-69
2023/02/09 09:03:11;;;;;;;;;;;;;;;20.41;36.47;102829.91;5055799;28;3106;-70
2023/02/09 09:05:37;;;;;;;;;;;;;;;20.42;36.57;102837.97;5046419;28;3219;-69
2023/02/09 09:08:04;;;;;;;;;;;;;;;20.42;36.62;102835.06;5049595;28;3045;-70
2023/02/09 09:10:30;;;;;;;;;;;;;;;20.42;36.97;102835.06;5049914;28;2952;-69
2023/02/09 09:12:57;;;;;;;;;;;;;;;20.41;37.00;102833.56;5043203;28;3016;-69
2023/02/09 09:15:23;;;;;;;;;;;;;;;20.39;37.21;102824.78;5046874;28;2950;-69
2023/02/09 09:17:50;;;;;;;;;;;;;;;20.38;37.33;102820.38;5052257;28;4364;-69
2023/02/09 09:20:16;;;;;;;;;;;;;;;20.37;37.55;102804.47;5059143;28;2808;-69
2023/02/09 09:22:42;;;;;;;;;;;;;;;20.38;37.50;102817.50;5057066;28;3001;-69
2023/02/09 09:25:09;;;;;;;;;;;;;;;20.41;37.49;102818.41;5054971;28;2982;-69
2023/02/09 09:27:35;;;;;;;;;;;;;;;20.39;37.63;102833.41;5049202;28;3139;-69
2023/02/09 09:30:02;;;;;;;;;;;;;;;20.41;37.90;102836.44;5048037;28;3095;-69
2023/02/09 09:32:28;;;;;;;;;;;;;;;20.41;38.01;102833.56;5048683;28;4462;-70
2023/02/09 09:34:56;;;;;;;;;;;;;;;20.40;38.03;102826.28;5052538;28;3110;-70
2023/02/09 09:37:22;;;;;;;;;;;;;;;20.42;38.33;102822.81;5056873;28;3036;-70
2023/02/09 09:39:49;;;;;;;;;;;;;;;20.42;38.24;102817.81;5054841;28;3625;-69
2023/02/09 09:42:32;;;;;;;;;;;;;;;20.48;38.74;102826.94;5048690;28;3161;-75
2023/02/09 09:44:59;;;;;;;;;;;;;;;20.68;38.68;102810.50;5058138;28;3066;-82
2023/02/09 09:47:33;;;;;;;;;;;;;;;20.75;38.98;102802.28;5048899;28;3593;-72
2023/02/09 09:49:59;;;;;;;;;;;;;;;20.98;39.26;102796.09;5053895;28;3532;-76
2023/02/09 09:52:30;;;;;;;;;;;;;;;20.85;38.44;102789.44;5044041;28;5109;-76
2023/02/09 09:54:56;;;;;;;;;;;;;;;20.78;39.38;102793.22;5048946;28;4535;-71
2023/02/09 09:57:23;;;;;;;;;;;;;;;20.93;39.91;102771.97;5058301;28;3499;-75
2023/02/09 09:59:50;;;;;;;;;;;;;;;21.10;39.26;102768.19;5060482;28;4542;-79
2023/02/09 10:02:22;;;;;;;;;;;;;;;21.00;39.05;102771.06;5051362;28;2954;-72
2023/02/09 10:04:48;;;;;;;;;;;;;;;20.75;39.02;102782.88;5048278;28;3485;-70
2023/02/09 10:07:16;;;;;;;;;;;;;;;20.62;38.94;102761.06;5052725;28;2961;-70
2023/02/09 10:09:50;;;;;;;;;;;;;;;20.54;38.92;102765.44;5050344;28;3110;-71
2023/02/09 10:12:16;;;;;;;;;;;;;;;20.62;39.78;102766.84;5043124;28;3279;-69
2023/02/09 10:14:43;;;;;;;;;;;;;;;20.75;39.46;102768.50;5053862;28;4591;-69
2023/02/09 10:17:09;;;;;;;;;;;;;;;20.85;39.36;102777.16;5059313;28;3163;-70
2023/02/09 10:19:36;;;;;;;;;;;;;;;20.88;39.34;102770.94;5052756;28;3356;-67
2023/02/09 10:22:02;;;;;;;;;;;;;;;20.89;39.41;102783.19;5050879;28;3200;-68
2023/02/09 10:24:29;;;;;;;;;;;;;;;20.89;39.17;102760.94;5047614;28;4834;-68
2023/02/09 10:27:03;;;;;;;;;;;;;;;20.96;39.61;102758.50;5051974;28;3820;-68
2023/02/09 10:29:29;;;;;;;;;;;;;;;20.96;39.54;102758.50;5050131;28;3113;-69
2023/02/09 10:31:58;;;;;;;;;;;;;;;20.95;39.82;102746.22;5055226;28;3188;-69
2023/02/09 10:34:30;;;;;;;;;;;;;;;20.88;40.04;102736.38;5052131;28;3277;-68
2023/02/09 10:37:15;;;;;;;;;;;;;;;20.95;40.49;102731.06;5050491;28;3329;-69
2023/02/09 10:39:41;;;;;;;;;;;;;;;20.93;40.29;102720.16;5058359;28;3767;-68
2023/02/09 10:42:15;;;;;;;;;;;;;;;20.94;40.10;102727.44;5053782;28;3167;-67
2023/02/09 10:44:41;;;;;;;;;;;;;;;20.93;40.19;102720.91;5055445;28;3056;-67
2023/02/09 10:47:22;;;;;;;;;;;;;;;20.92;40.62;102718.63;5052876;28;3135;-69
2023/02/09 10:49:49;;;;;;;;;;;;;;;20.95;40.15;102716.66;5062146;28;3328;-69
2023/02/09 10:52:19;;;;;;;;;;;;;;;20.89;40.27;102709.09;5051994;28;3099;-69
2023/02/09 10:54:49;;;;;;;;;;;;;;;20.91;40.42;102706.38;5053338;28;3112;-69
2023/02/09 10:57:19;;;;;;;;;;;;;;;20.89;41.17;102711.97;5050149;28;3293;-69
2023/02/09 10:59:58;;;;;;;;;;;;;;;20.94;40.95;102710.16;5057321;28;2810;-69
2023/02/09 11:02:39;;;;;;;;;;;;;;;20.89;41.64;102705.44;5051870;28;3330;-69
2023/02/09 11:05:24;;;;;;;;;;;;;;;21.00;41.18;102704.06;5049662;28;3138;-69
2023/02/09 11:07:52;;;;;;;;;;;;;;;21.00;41.29;102704.06;5053197;28;3203;-67
2023/02/09 11:10:19;;;;;;;;;;;;;;;21.13;41.53;102703.59;5058092;28;3123;-68
2023/02/09 11:12:45;;;;;;;;;;;;;;;21.12;41.39;102699.22;5059503;28;3117;-66
2023/02/09 11:15:12;;;;;;;;;;;;;;;21.08;41.36;102707.56;5053217;28;3534;-66
2023/02/09 11:17:40;;;;;;;;;;;;;;;21.03;41.06;102706.50;5051158;28;3561;-66
2023/02/09 11:20:07;;;;;;;;;;;;;;;21.01;40.83;102714.25;5051719;28;3298;-66
2023/02/09 11:22:51;;;;;;;;;;;;;;;21.00;40.95;102712.72;5052324;28;3059;-66
2023/02/09 11:25:22;;;;;;;;;;;;;;;20.98;40.87;102703.91;5055149;28;3158;-66
2023/02/09 11:28:08;;;;;;;;;;;;;;;21.05;41.11;102706.66;5041728;28;3084;-67
2023/02/09 11:30:49;;;;;;;;;;;;;;;20.49;39.57;102701.78;5040841;28;3271;-67
2023/02/09 11:33:25;;;;;;;;;;;;;;;20.70;38.96;102697.59;5048022;28;3058;-67
2023/02/09 11:36:09;;;;;;;;;;;;;;;20.83;38.93;102694.25;5050310;28;4373;-68
2023/02/09 11:38:40;;;;;;;;;;;;;;;20.97;40.13;102696.66;5043217;28;4682;-67
2023/02/09 11:42:42;;;;;;;;;;;;;;;21.02;39.75;102689.81;5048974;28;3212;-68
2023/02/09 11:43:54;;;;;;;;;;;;;;;21.15;40.36;102688.59;5047401;28;3645;-67
2023/02/09 11:46:21;;;;;;;;;;;;;;;21.16;40.45;102685.06;5047011;28;3282;-68
2023/02/09 11:48:49;;;;;;;;;;;;;;;21.18;40.35;102681.59;5046728;28;3523;-64
2023/02/09 11:51:16;;;;;;;;;;;;;;;21.12;40.48;102682.69;5053233;28;3502;-64
2023/02/09 11:53:58;;;;;;;;;;;;;;;21.17;40.36;102691.63;5044154;28;3403;-65
2023/02/09 11:56:25;;;;;;;;;;;;;;;21.21;40.52;102684.03;5042610;28;3405;-65
2023/02/09 11:59:10;;;;;;;;;;;;;;;21.22;40.42;102679.75;5050276;28;3114;-65
2023/02/09 12:01:55;;;;;;;;;;;;;;;21.18;39.98;102670.81;5045168;28;3202;-65
2023/02/09 12:04:23;;;;;;;;;;;;;;;21.11;40.14;102666.75;5039957;28;3297;-66
2023/02/09 12:06:50;;;;;;;;;;;;;;;21.03;40.19;102665.44;5041740;28;2946;-66
2023/02/09 12:09:24;;;;;;;;;;;;;;;21.14;40.10;102670.53;5044979;28;3030;-66
2023/02/09 12:11:52;;;;;;;;;;;;;;;21.20;40.23;102673.09;5046568;28;3028;-66
2023/02/09 12:14:29;;;;;;;;;;;;;;;21.17;40.16;102680.84;5050095;28;3136;-67
2023/02/09 12:16:57;;;;;;;;;;;;;;;21.15;39.93;102671.31;5043224;28;2878;-66
2023/02/09 12:19:25;;;;;;;;;;;;;;;21.18;39.68;102665.06;5027986;28;3033;-65
2023/02/09 12:21:51;;;;;;;;;;;;;;;21.22;39.60;102664.59;5047960;28;2910;-66
2023/02/09 12:24:36;;;;;;;;;;;;;;;21.15;39.89;102660.53;5049133;28;2942;-65
2023/02/09 12:27:02;;;;;;;;;;;;;;;21.16;40.01;102661.28;5041118;28;3043;-64
2023/02/09 12:29:28;;;;;;;;;;;;;;;21.06;40.57;102658.44;5043175;28;3624;-64
2023/02/09 12:32:04;;;;;;;;;;;;;;;20.96;40.09;102649.81;5049323;28;3146;-65
2023/02/09 12:34:33;;;;;;;;;;;;;;;20.89;40.26;102647.84;5046592;28;3025;-64
2023/02/09 12:37:12;;;;;;;;;;;;;;;20.87;40.47;102642.72;5045800;28;3093;-65
2023/02/09 12:39:57;;;;;;;;;;;;;;;20.86;40.40;102638.31;5044611;28;3395;-65
2023/02/09 12:42:26;;;;;;;;;;;;;;;20.87;40.69;102624.69;5045101;28;2997;-64
2023/02/09 12:44:53;;;;;;;;;;;;;;;20.92;42.06;102627.22;5044496;28;3458;-64
2023/02/09 12:47:38;;;;;;;;;;;;;;;21.04;40.85;102627.34;5046407;28;5020;-65
2023/02/09 12:50:12;;;;;;;;;;;;;;;21.11;40.35;102642.94;5049057;28;3756;-64
2023/02/09 12:52:40;;;;;;;;;;;;;;;21.18;40.49;102649.91;5052943;28;3136;-65
2023/02/09 12:55:10;;;;;;;;;;;;;;;21.24;40.43;102651.09;5053179;28;3472;-65
2023/02/09 12:57:46;;;;;;;;;;;;;;;21.24;40.28;102639.56;5051157;28;3284;-64
2023/02/09 13:00:13;;;;;;;;;;;;;;;20.99;39.96;102637.06;5048795;28;3335;-67
2023/02/09 13:02:41;;;;;;;;;;;;;;;21.08;41.13;102649.94;5041230;28;4346;-65
2023/02/09 13:05:17;;;;;;;;;;;;;;;21.28;40.72;102644.84;5048566;28;2914;-66